createdAt,value
2018-09-23T00:00:51.204Z,0.00
2018-09-23T00:01:51.166Z,0.00
2018-09-23T00:02:51.153Z,0.00
2018-09-23T00:03:51.197Z,0.00
2018-09-23T00:04:51.678Z,0.00
2018-09-23T00:05:51.123Z,0.00
2018-09-23T00:06:51.142Z,0.00
2018-09-23T00:07:51.101Z,0.00
2018-09-23T00:08:51.113Z,0.00
2018-09-23T00:09:51.082Z,0.00
2018-09-23T00:10:51.091Z,0.00
2018-09-23T00:11:51.052Z,0.00
2018-09-23T00:12:51.045Z,0.00
2018-09-23T00:13:51.030Z,0.00
2018-09-23T00:14:51.034Z,0.00
2018-09-23T00:15:51.031Z,0.00
2018-09-23T00:16:50.997Z,0.00
2018-09-23T00:17:50.984Z,0.00
2018-09-23T00:18:50.976Z,0.00
2018-09-23T00:19:50.981Z,0.00
2018-09-23T00:20:50.992Z,0.00
2018-09-23T00:21:50.952Z,0.00
2018-09-23T00:22:50.927Z,0.00
2018-09-23T00:23:50.921Z,0.00
2018-09-23T00:24:50.911Z,0.00
2018-09-23T00:25:50.920Z,0.00
2018-09-23T00:26:50.919Z,0.00
2018-09-23T00:27:50.872Z,0.00
2018-09-23T00:28:50.859Z,0.00
2018-09-23T00:29:50.850Z,0.00
2018-09-23T00:30:50.837Z,0.00
2018-09-23T00:31:50.852Z,0.00
2018-09-23T00:32:50.847Z,0.00
2018-09-23T00:33:50.805Z,0.00
2018-09-23T00:34:50.796Z,0.00
2018-09-23T00:35:50.782Z,0.00
2018-09-23T00:36:50.772Z,0.00
2018-09-23T00:37:50.790Z,0.00
2018-09-23T00:38:50.780Z,0.00
2018-09-23T00:39:50.746Z,0.00
2018-09-23T00:40:50.729Z,0.00
2018-09-23T00:41:50.717Z,0.00
2018-09-23T00:42:50.737Z,0.00
2018-09-23T00:43:50.697Z,0.00
2018-09-23T00:44:50.679Z,0.00
2018-09-23T00:45:50.677Z,0.00
2018-09-23T00:46:50.656Z,0.00
2018-09-23T00:47:50.689Z,0.00
2018-09-23T00:48:50.651Z,0.00
2018-09-23T00:49:50.629Z,0.00
2018-09-23T00:50:50.622Z,0.00
2018-09-23T00:51:50.604Z,0.00
2018-09-23T00:52:50.638Z,0.00
2018-09-23T00:53:50.577Z,0.00
2018-09-23T00:54:50.571Z,0.00
2018-09-23T00:55:50.579Z,0.00
2018-09-23T00:56:50.578Z,0.00
2018-09-23T00:57:50.536Z,0.00
2018-09-23T00:58:50.532Z,0.00
2018-09-23T00:59:50.510Z,0.00
2018-09-23T01:00:50.515Z,0.00
2018-09-23T01:01:50.516Z,0.00
2018-09-23T01:02:50.477Z,0.00
2018-09-23T01:03:50.474Z,0.00
2018-09-23T01:04:50.456Z,0.00
2018-09-23T01:05:50.466Z,0.00
2018-09-23T01:06:50.437Z,0.00
2018-09-23T01:07:50.420Z,0.00
2018-09-23T01:08:50.407Z,0.00
2018-09-23T01:09:50.401Z,0.00
2018-09-23T01:10:50.437Z,0.00
2018-09-23T01:11:50.379Z,0.00
2018-09-23T01:12:50.372Z,0.00
2018-09-23T01:13:51.172Z,0.00
2018-09-23T01:14:50.339Z,0.00
2018-09-23T01:15:50.342Z,0.00
2018-09-23T01:16:50.326Z,0.00
2018-09-23T01:17:50.306Z,0.00
2018-09-23T01:18:50.298Z,0.00
2018-09-23T01:19:50.305Z,0.00
2018-09-23T01:20:50.274Z,0.00
2018-09-23T01:21:50.263Z,0.00
2018-09-23T01:22:50.262Z,0.00
2018-09-23T01:23:50.241Z,0.00
2018-09-23T01:24:50.249Z,0.00
2018-09-23T01:25:50.237Z,0.00
2018-09-23T01:26:50.205Z,0.00
2018-09-23T01:27:50.194Z,0.00
2018-09-23T01:28:50.216Z,0.00
2018-09-23T01:29:50.176Z,0.00
2018-09-23T01:30:50.161Z,0.00
2018-09-23T01:31:50.148Z,0.00
2018-09-23T01:32:50.135Z,0.00
2018-09-23T01:33:50.163Z,0.00
2018-09-23T01:34:50.128Z,0.00
2018-09-23T01:35:50.104Z,0.00
2018-09-23T01:36:50.088Z,0.00
2018-09-23T01:37:50.080Z,0.00
2018-09-23T01:38:50.109Z,0.00
2018-09-23T01:39:50.060Z,0.00
2018-09-23T01:40:50.062Z,0.00
2018-09-23T01:41:50.035Z,0.00
2018-09-23T01:42:50.025Z,0.00
2018-09-23T01:43:50.034Z,0.00
2018-09-23T01:44:50.001Z,0.00
2018-09-23T01:45:49.990Z,0.00
2018-09-23T01:46:49.999Z,0.00
2018-09-23T01:47:50.000Z,0.00
2018-09-23T01:48:49.957Z,0.00
2018-09-23T01:49:49.945Z,0.00
2018-09-23T01:50:49.935Z,0.00
2018-09-23T01:51:49.924Z,0.00
2018-09-23T01:52:49.957Z,0.00
2018-09-23T01:53:49.903Z,0.00
2018-09-23T01:54:49.888Z,0.00
2018-09-23T01:55:49.879Z,0.00
2018-09-23T01:56:49.865Z,0.00
2018-09-23T01:57:49.886Z,0.00
2018-09-23T01:58:49.865Z,0.00
2018-09-23T01:59:49.831Z,0.00
2018-09-23T02:00:49.821Z,0.00
2018-09-23T02:01:49.811Z,0.00
2018-09-23T02:02:49.819Z,0.00
2018-09-23T02:03:49.789Z,0.00
2018-09-23T02:04:49.783Z,0.00
2018-09-23T02:05:49.764Z,0.00
2018-09-23T02:06:49.782Z,0.00
2018-09-23T02:07:49.742Z,0.00
2018-09-23T02:08:49.729Z,0.00
2018-09-23T02:09:49.728Z,0.00
2018-09-23T02:10:49.714Z,0.00
2018-09-23T02:11:49.717Z,0.00
2018-09-23T02:12:49.688Z,0.00
2018-09-23T02:13:49.677Z,0.00
2018-09-23T02:14:49.692Z,0.00
2018-09-23T02:15:49.651Z,0.00
2018-09-23T02:16:49.640Z,0.00
2018-09-23T02:17:49.696Z,0.00
2018-09-23T02:18:49.619Z,0.00
2018-09-23T02:19:49.606Z,0.00
2018-09-23T02:20:49.595Z,0.00
2018-09-23T02:21:49.598Z,0.00
2018-09-23T02:22:49.617Z,0.00
2018-09-23T02:23:49.574Z,0.00
2018-09-23T02:24:49.551Z,0.00
2018-09-23T02:25:49.539Z,0.00
2018-09-23T02:26:49.530Z,0.00
2018-09-23T02:27:49.538Z,0.00
2018-09-23T02:28:49.503Z,0.00
2018-09-23T02:29:49.507Z,0.00
2018-09-23T02:30:49.485Z,0.00
2018-09-23T02:31:49.495Z,0.00
2018-09-23T02:32:49.469Z,0.00
2018-09-23T02:33:49.481Z,0.00
2018-09-23T02:34:49.436Z,0.00
2018-09-23T02:35:49.426Z,0.00
2018-09-23T02:36:49.426Z,0.00
2018-09-23T02:37:49.410Z,0.00
2018-09-23T02:38:49.417Z,0.00
2018-09-23T02:39:49.413Z,0.00
2018-09-23T02:40:49.368Z,0.00
2018-09-23T02:41:49.359Z,0.00
2018-09-23T02:42:49.367Z,0.00
2018-09-23T02:43:49.356Z,0.00
2018-09-23T02:44:49.324Z,0.00
2018-09-23T02:45:49.347Z,0.00
2018-09-23T02:46:49.308Z,0.00
2018-09-23T02:47:49.290Z,0.00
2018-09-23T02:48:49.422Z,0.00
2018-09-23T02:49:49.270Z,0.00
2018-09-23T02:50:49.258Z,0.00
2018-09-23T02:51:49.247Z,0.00
2018-09-23T02:52:49.233Z,0.00
2018-09-23T02:53:49.246Z,0.00
2018-09-23T02:54:49.215Z,0.00
2018-09-23T02:55:49.217Z,0.00
2018-09-23T02:56:49.189Z,0.00
2018-09-23T02:57:49.179Z,0.00
2018-09-23T02:58:49.187Z,0.00
2018-09-23T02:59:49.158Z,0.00
2018-09-23T03:00:49.185Z,0.00
2018-09-23T03:01:49.161Z,0.00
2018-09-23T03:02:49.143Z,0.00
2018-09-23T03:03:49.132Z,0.00
2018-09-23T03:04:49.100Z,0.00
2018-09-23T03:05:49.088Z,0.00
2018-09-23T03:06:49.083Z,0.00
2018-09-23T03:07:49.088Z,0.00
2018-09-23T03:08:49.102Z,0.00
2018-09-23T03:09:49.043Z,0.00
2018-09-23T03:10:49.030Z,0.00
2018-09-23T03:11:49.097Z,0.00
2018-09-23T03:12:49.014Z,0.00
2018-09-23T03:13:56.806Z,0.00
2018-09-23T03:14:56.984Z,0.00
2018-09-23T03:15:48.977Z,0.00
2018-09-23T03:16:48.984Z,0.00
2018-09-23T03:17:56.964Z,0.00
2018-09-23T03:18:58.331Z,0.00
2018-09-23T03:19:56.225Z,0.00
2018-09-23T03:20:56.729Z,0.00
2018-09-23T03:21:56.857Z,0.00
2018-09-23T03:22:48.917Z,0.00
2018-09-23T03:23:58.468Z,0.00
2018-09-23T03:24:48.904Z,0.00
2018-09-23T03:25:48.863Z,0.00
2018-09-23T03:26:48.852Z,0.00
2018-09-23T03:27:48.841Z,0.00
2018-09-23T03:28:48.831Z,0.00
2018-09-23T03:29:48.843Z,0.00
2018-09-23T03:30:48.807Z,0.00
2018-09-23T03:31:48.800Z,0.00
2018-09-23T03:32:48.784Z,0.00
2018-09-23T03:33:48.773Z,0.00
2018-09-23T03:34:48.787Z,0.00
2018-09-23T03:35:48.757Z,0.00
2018-09-23T03:36:48.739Z,0.00
2018-09-23T03:37:48.728Z,0.00
2018-09-23T03:38:48.741Z,0.00
2018-09-23T03:39:48.711Z,0.00
2018-09-23T03:40:48.743Z,0.00
2018-09-23T03:41:48.683Z,0.00
2018-09-23T03:42:48.697Z,0.00
2018-09-23T03:43:48.664Z,0.00
2018-09-23T03:44:48.649Z,0.00
2018-09-23T03:45:48.662Z,0.00
2018-09-23T03:46:48.644Z,0.00
2018-09-23T03:47:48.641Z,0.00
2018-09-23T03:48:48.603Z,0.00
2018-09-23T03:49:48.656Z,0.00
2018-09-23T03:50:48.583Z,0.00
2018-09-23T03:51:48.590Z,0.00
2018-09-23T03:52:48.589Z,0.00
2018-09-23T03:53:48.549Z,0.00
2018-09-23T03:54:48.536Z,0.00
2018-09-23T03:55:48.524Z,0.00
2018-09-23T03:56:48.542Z,0.00
2018-09-23T03:57:48.555Z,0.00
2018-09-23T03:58:48.499Z,0.00
2018-09-23T03:59:48.482Z,0.00
2018-09-23T04:00:48.468Z,0.00
2018-09-23T04:01:48.484Z,0.00
2018-09-23T04:02:48.469Z,0.00
2018-09-23T04:03:48.442Z,0.00
2018-09-23T04:04:48.431Z,0.00
2018-09-23T04:05:48.441Z,0.00
2018-09-23T04:06:48.401Z,0.00
2018-09-23T04:07:48.399Z,0.00
2018-09-23T04:08:48.385Z,0.00
2018-09-23T04:09:48.377Z,0.00
2018-09-23T04:10:48.382Z,0.00
2018-09-23T04:11:48.346Z,0.00
2018-09-23T04:12:48.342Z,0.00
2018-09-23T04:13:48.350Z,0.00
2018-09-23T04:14:48.315Z,0.00
2018-09-23T04:15:48.303Z,0.00
2018-09-23T04:16:56.502Z,0.00
2018-09-23T04:17:48.301Z,0.00
2018-09-23T04:18:48.265Z,0.00
2018-09-23T04:19:48.258Z,0.00
2018-09-23T04:20:48.248Z,0.00
2018-09-23T04:21:48.235Z,0.00
2018-09-23T04:22:48.259Z,0.00
2018-09-23T04:23:48.238Z,0.00
2018-09-23T04:24:48.198Z,0.00
2018-09-23T04:25:48.186Z,0.00
2018-09-23T04:26:48.181Z,0.00
2018-09-23T04:27:48.189Z,0.00
2018-09-23T04:28:48.196Z,0.00
2018-09-23T04:29:48.143Z,0.00
2018-09-23T04:30:48.130Z,0.00
2018-09-23T04:31:48.130Z,0.00
2018-09-23T04:32:48.113Z,0.00
2018-09-23T04:33:48.122Z,0.00
2018-09-23T04:34:48.087Z,0.00
2018-09-23T04:35:48.073Z,0.00
2018-09-23T04:36:48.096Z,0.00
2018-09-23T04:37:48.051Z,0.00
2018-09-23T04:38:48.046Z,0.00
2018-09-23T04:39:48.030Z,0.00
2018-09-23T04:40:48.021Z,0.00
2018-09-23T04:41:48.029Z,0.00
2018-09-23T04:42:47.995Z,0.00
2018-09-23T04:43:47.984Z,0.00
2018-09-23T04:44:48.018Z,0.00
2018-09-23T04:45:47.969Z,4.00
2018-09-23T04:46:47.974Z,0.00
2018-09-23T04:47:47.969Z,0.00
2018-09-23T04:48:47.928Z,4.00
2018-09-23T04:49:47.922Z,4.00
2018-09-23T04:50:47.917Z,4.00
2018-09-23T04:51:47.893Z,4.00
2018-09-23T04:52:57.527Z,4.00
2018-09-23T04:53:47.868Z,4.00
2018-09-23T04:54:47.859Z,8.00
2018-09-23T04:55:47.847Z,8.00
2018-09-23T04:56:47.863Z,8.00
2018-09-23T04:57:47.822Z,12.00
2018-09-23T04:58:47.811Z,16.00
2018-09-23T04:59:47.830Z,16.00
2018-09-23T05:00:47.799Z,20.00
2018-09-23T05:01:47.803Z,20.00
2018-09-23T05:02:47.769Z,24.00
2018-09-23T05:03:47.775Z,28.00
2018-09-23T05:04:47.768Z,32.00
2018-09-23T05:05:47.732Z,36.00
2018-09-23T05:06:47.727Z,40.00
2018-09-23T05:07:47.723Z,40.00
2018-09-23T05:08:47.703Z,44.00
2018-09-23T05:09:47.709Z,48.00
2018-09-23T05:10:47.676Z,52.00
2018-09-23T05:11:47.665Z,52.00
2018-09-23T05:12:47.654Z,52.00
2018-09-23T05:13:47.668Z,56.00
2018-09-23T05:14:47.642Z,56.00
2018-09-23T05:15:47.644Z,56.00
2018-09-23T05:16:47.630Z,60.00
2018-09-23T05:17:47.596Z,60.00
2018-09-23T05:18:47.589Z,60.00
2018-09-23T05:19:47.575Z,64.00
2018-09-23T05:20:47.581Z,60.00
2018-09-23T05:21:47.623Z,64.00
2018-09-23T05:22:47.540Z,68.00
2018-09-23T05:23:47.532Z,68.00
2018-09-23T05:24:47.540Z,64.00
2018-09-23T05:25:47.513Z,64.00
2018-09-23T05:26:47.502Z,60.00
2018-09-23T05:27:47.508Z,60.00
2018-09-23T05:28:47.472Z,68.00
2018-09-23T05:29:47.568Z,72.00
2018-09-23T05:30:47.466Z,80.00
2018-09-23T05:31:47.441Z,76.00
2018-09-23T05:32:47.430Z,80.00
2018-09-23T05:33:47.439Z,88.00
2018-09-23T05:34:47.409Z,88.00
2018-09-23T05:35:47.417Z,88.00
2018-09-23T05:36:47.418Z,88.00
2018-09-23T05:37:47.375Z,88.00
2018-09-23T05:38:47.382Z,88.00
2018-09-23T05:39:47.349Z,104.00
2018-09-23T05:40:47.341Z,128.00
2018-09-23T05:41:47.348Z,132.00
2018-09-23T05:42:47.322Z,136.00
2018-09-23T05:43:47.362Z,128.00
2018-09-23T05:44:47.294Z,116.00
2018-09-23T05:45:47.281Z,112.00
2018-09-23T05:46:47.303Z,120.00
2018-09-23T05:47:47.262Z,132.00
2018-09-23T05:48:47.253Z,128.00
2018-09-23T05:49:47.236Z,120.00
2018-09-23T05:50:47.225Z,104.00
2018-09-23T05:51:47.235Z,108.00
2018-09-23T05:52:47.207Z,120.00
2018-09-23T05:53:47.190Z,148.00
2018-09-23T05:54:47.183Z,196.00
2018-09-23T05:55:47.168Z,264.00
2018-09-23T05:56:47.188Z,304.00
2018-09-23T05:57:47.146Z,312.00
2018-09-23T05:58:47.134Z,304.00
2018-09-23T05:59:47.123Z,312.00
2018-09-23T06:00:47.116Z,332.00
2018-09-23T06:01:47.132Z,360.00
2018-09-23T06:02:47.090Z,340.00
2018-09-23T06:03:47.093Z,324.00
2018-09-23T06:04:47.073Z,324.00
2018-09-23T06:05:47.055Z,328.00
2018-09-23T06:06:47.068Z,360.00
2018-09-23T06:07:47.042Z,392.00
2018-09-23T06:08:47.087Z,380.00
2018-09-23T06:09:47.014Z,356.00
2018-09-23T06:10:47.018Z,360.00
2018-09-23T06:11:46.994Z,356.00
2018-09-23T06:12:46.984Z,352.00
2018-09-23T06:13:46.971Z,340.00
2018-09-23T06:14:46.974Z,344.00
2018-09-23T06:15:46.969Z,372.00
2018-09-23T06:16:46.934Z,404.00
2018-09-23T06:17:46.924Z,440.00
2018-09-23T06:18:46.912Z,516.00
2018-09-23T06:19:46.923Z,616.00
2018-09-23T06:20:46.925Z,688.00
2018-09-23T06:21:46.896Z,684.00
2018-09-23T06:22:46.864Z,656.00
2018-09-23T06:23:46.851Z,652.00
2018-09-23T06:24:46.883Z,664.00
2018-09-23T06:25:46.832Z,652.00
2018-09-23T06:26:46.820Z,620.00
2018-09-23T06:27:46.825Z,564.00
2018-09-23T06:28:46.795Z,520.00
2018-09-23T06:29:47.517Z,528.00
2018-09-23T06:30:46.812Z,568.00
2018-09-23T06:31:46.775Z,588.00
2018-09-23T06:32:46.809Z,548.00
2018-09-23T06:33:46.757Z,520.00
2018-09-23T06:34:46.738Z,496.00
2018-09-23T06:35:46.811Z,440.00
2018-09-23T06:36:46.723Z,368.00
2018-09-23T06:37:46.720Z,332.00
2018-09-23T06:38:46.689Z,360.00
2018-09-23T06:39:46.701Z,404.00
2018-09-23T06:40:46.665Z,392.00
2018-09-23T06:41:46.651Z,404.00
2018-09-23T06:42:46.643Z,472.00
2018-09-23T06:43:46.661Z,524.00
2018-09-23T06:44:46.627Z,540.00
2018-09-23T06:45:46.674Z,532.00
2018-09-23T06:46:46.613Z,500.00
2018-09-23T06:47:46.607Z,468.00
2018-09-23T06:48:46.594Z,460.00
2018-09-23T06:49:46.563Z,480.00
2018-09-23T06:50:46.588Z,488.00
2018-09-23T06:51:46.537Z,544.00
2018-09-23T06:52:46.534Z,624.00
2018-09-23T06:53:46.544Z,680.00
2018-09-23T06:54:46.505Z,752.00
2018-09-23T06:55:46.502Z,856.00
2018-09-23T06:56:46.485Z,1028.00
2018-09-23T06:57:46.502Z,1192.00
2018-09-23T06:58:46.459Z,1352.00
2018-09-23T06:59:46.480Z,1444.00
2018-09-23T07:00:46.439Z,1500.00
2018-09-23T07:01:46.429Z,1512.00
2018-09-23T07:02:46.458Z,1452.00
2018-09-23T07:03:46.405Z,1340.00
2018-09-23T07:04:46.565Z,1240.00
2018-09-23T07:05:46.380Z,1164.00
2018-09-23T07:06:46.378Z,1080.00
2018-09-23T07:07:46.385Z,988.00
2018-09-23T07:08:46.358Z,872.00
2018-09-23T07:09:46.358Z,748.00
2018-09-23T07:10:46.329Z,660.00
2018-09-23T07:11:46.365Z,632.00
2018-09-23T07:12:46.305Z,632.00
2018-09-23T07:13:46.316Z,624.00
2018-09-23T07:14:46.283Z,624.00
2018-09-23T07:15:46.270Z,656.00
2018-09-23T07:16:46.274Z,676.00
2018-09-23T07:17:46.248Z,688.00
2018-09-23T07:18:46.261Z,688.00
2018-09-23T07:19:46.251Z,696.00
2018-09-23T07:20:46.217Z,740.00
2018-09-23T07:21:46.201Z,780.00
2018-09-23T07:22:46.193Z,804.00
2018-09-23T07:23:46.623Z,808.00
2018-09-23T07:24:46.200Z,848.00
2018-09-23T07:25:46.192Z,912.00
2018-09-23T07:26:46.146Z,1016.00
2018-09-23T07:27:46.147Z,1152.00
2018-09-23T07:28:46.122Z,1212.00
2018-09-23T07:29:46.141Z,1192.00
2018-09-23T07:30:46.163Z,1120.00
2018-09-23T07:31:46.088Z,1064.00
2018-09-23T07:32:46.077Z,1020.00
2018-09-23T07:33:46.082Z,1004.00
2018-09-23T07:34:46.068Z,1024.00
2018-09-23T07:35:46.073Z,1112.00
2018-09-23T07:36:46.057Z,1188.00
2018-09-23T07:37:46.057Z,1256.00
2018-09-23T07:38:46.009Z,1348.00
2018-09-23T07:39:46.011Z,1468.00
2018-09-23T07:40:45.985Z,1564.00
2018-09-23T07:41:45.982Z,1592.00
2018-09-23T07:42:45.997Z,1700.00
2018-09-23T07:43:45.952Z,1856.00
2018-09-23T07:44:45.942Z,1892.00
2018-09-23T07:45:45.963Z,1912.00
2018-09-23T07:46:45.919Z,2028.00
2018-09-23T07:47:45.930Z,2152.00
2018-09-23T07:48:45.896Z,2180.00
2018-09-23T07:49:46.106Z,2072.00
2018-09-23T07:50:45.873Z,1900.00
2018-09-23T07:51:45.885Z,1756.00
2018-09-23T07:52:45.862Z,1640.00
2018-09-23T07:53:45.847Z,1628.00
2018-09-23T07:54:45.852Z,1688.00
2018-09-23T07:55:45.820Z,1748.00
2018-09-23T07:56:45.805Z,1824.00
2018-09-23T07:57:45.824Z,1824.00
2018-09-23T07:58:45.794Z,1752.00
2018-09-23T07:59:45.771Z,1584.00
2018-09-23T08:00:45.761Z,1392.00
2018-09-23T08:01:45.778Z,1352.00
2018-09-23T08:02:45.742Z,1416.00
2018-09-23T08:03:45.726Z,1432.00
2018-09-23T08:04:45.716Z,1372.00
2018-09-23T08:05:45.703Z,1284.00
2018-09-23T08:06:45.728Z,1176.00
2018-09-23T08:07:45.682Z,1128.00
2018-09-23T08:08:45.670Z,1160.00
2018-09-23T08:09:45.661Z,1276.00
2018-09-23T08:10:45.651Z,1556.00
2018-09-23T08:11:45.666Z,1740.00
2018-09-23T08:12:45.750Z,1900.00
2018-09-23T08:13:45.820Z,2048.00
2018-09-23T08:14:46.151Z,2192.00
2018-09-23T08:15:45.593Z,2212.00
2018-09-23T08:16:45.590Z,2048.00
2018-09-23T08:17:45.570Z,1800.00
2018-09-23T08:18:45.588Z,1648.00
2018-09-23T08:19:45.810Z,1564.00
2018-09-23T08:20:45.596Z,1560.00
2018-09-23T08:21:45.531Z,1648.00
2018-09-23T08:22:45.524Z,1728.00
2018-09-23T08:23:45.532Z,1736.00
2018-09-23T08:24:45.497Z,1684.00
2018-09-23T08:25:45.589Z,1716.00
2018-09-23T08:26:45.472Z,1820.00
2018-09-23T08:27:45.457Z,1996.00
2018-09-23T08:28:45.445Z,2172.00
2018-09-23T08:29:45.433Z,2316.00
2018-09-23T08:30:45.452Z,2444.00
2018-09-23T08:31:45.422Z,2540.00
2018-09-23T08:32:45.402Z,2484.00
2018-09-23T08:33:45.392Z,2488.00
2018-09-23T08:34:45.378Z,2504.00
2018-09-23T08:35:45.396Z,2520.00
2018-09-23T08:36:45.355Z,2552.00
2018-09-23T08:37:45.370Z,2588.00
2018-09-23T08:38:45.337Z,2688.00
2018-09-23T08:39:45.342Z,2952.00
2018-09-23T08:40:45.350Z,3116.00
2018-09-23T08:41:45.303Z,3172.00
2018-09-23T08:42:45.318Z,3220.00
2018-09-23T08:43:45.277Z,3148.00
2018-09-23T08:44:45.265Z,3064.00
2018-09-23T08:45:45.283Z,3152.00
2018-09-23T08:46:45.256Z,3312.00
2018-09-23T08:47:45.302Z,3436.00
2018-09-23T08:48:45.220Z,3452.00
2018-09-23T08:49:45.218Z,3404.00
2018-09-23T08:50:45.209Z,3228.00
2018-09-23T08:51:45.248Z,2920.00
2018-09-23T08:52:45.208Z,2700.00
2018-09-23T08:53:45.163Z,2676.00
2018-09-23T08:54:45.151Z,2880.00
2018-09-23T08:55:45.140Z,3200.00
2018-09-23T08:56:45.144Z,3436.00
2018-09-23T08:57:45.203Z,3224.00
2018-09-23T08:58:45.122Z,3052.00
2018-09-23T08:59:45.096Z,3112.00
2018-09-23T09:00:45.085Z,3372.00
2018-09-23T09:01:45.090Z,3104.00
2018-09-23T09:02:45.094Z,2728.00
2018-09-23T09:03:45.116Z,2344.00
2018-09-23T09:04:45.043Z,2012.00
2018-09-23T09:05:45.027Z,2036.00
2018-09-23T09:06:45.026Z,2348.00
2018-09-23T09:07:45.030Z,2368.00
2018-09-23T09:08:45.021Z,2584.00
2018-09-23T09:09:45.012Z,2928.00
2018-09-23T09:10:44.973Z,2988.00
2018-09-23T09:11:45.027Z,2756.00
2018-09-23T09:12:44.946Z,2548.00
2018-09-23T09:13:44.947Z,2948.00
2018-09-23T09:14:44.969Z,3192.00
2018-09-23T09:15:44.936Z,3240.00
2018-09-23T09:16:44.902Z,3560.00
2018-09-23T09:17:44.890Z,3724.00
2018-09-23T09:18:45.000Z,3548.00
2018-09-23T09:19:44.893Z,3208.00
2018-09-23T09:20:44.856Z,3208.00
2018-09-23T09:21:44.845Z,2924.00
2018-09-23T09:22:44.839Z,2924.00
2018-09-23T09:23:44.823Z,3288.00
2018-09-23T09:24:44.845Z,3772.00
2018-09-23T09:25:44.807Z,3740.00
2018-09-23T09:26:44.854Z,3356.00
2018-09-23T09:27:44.805Z,3336.00
2018-09-23T09:28:44.775Z,3156.00
2018-09-23T09:29:44.754Z,3352.00
2018-09-23T09:30:44.752Z,3476.00
2018-09-23T09:31:44.764Z,3252.00
2018-09-23T09:32:44.721Z,2924.00
2018-09-23T09:33:44.709Z,2956.00
2018-09-23T09:34:44.718Z,2928.00
2018-09-23T09:35:44.693Z,2600.00
2018-09-23T09:36:44.699Z,2560.00
2018-09-23T09:37:44.667Z,2308.00
2018-09-23T09:38:44.656Z,2128.00
2018-09-23T09:39:44.641Z,1952.00
2018-09-23T09:40:44.635Z,1796.00
2018-09-23T09:41:44.640Z,1804.00
2018-09-23T09:42:44.606Z,1800.00
2018-09-23T09:43:44.603Z,1548.00
2018-09-23T09:44:44.588Z,1448.00
2018-09-23T09:45:44.574Z,1404.00
2018-09-23T09:46:44.596Z,1448.00
2018-09-23T09:47:44.574Z,1468.00
2018-09-23T09:48:44.698Z,1416.00
2018-09-23T09:49:44.536Z,1452.00
2018-09-23T09:50:44.522Z,1544.00
2018-09-23T09:51:44.509Z,1616.00
2018-09-23T09:52:44.500Z,1692.00
2018-09-23T09:53:44.508Z,1808.00
2018-09-23T09:54:44.472Z,1944.00
2018-09-23T09:55:44.459Z,1996.00
2018-09-23T09:56:44.449Z,1896.00
2018-09-23T09:57:44.479Z,1772.00
2018-09-23T09:58:44.446Z,1616.00
2018-09-23T09:59:44.440Z,1484.00
2018-09-23T10:00:44.402Z,1376.00
2018-09-23T10:01:44.391Z,1332.00
2018-09-23T10:02:44.410Z,1312.00
2018-09-23T10:03:44.409Z,1316.00
2018-09-23T10:04:44.362Z,1376.00
2018-09-23T10:05:44.359Z,1452.00
2018-09-23T10:06:44.336Z,1480.00
2018-09-23T10:07:44.345Z,1560.00
2018-09-23T10:08:44.324Z,1648.00
2018-09-23T10:09:44.319Z,1648.00
2018-09-23T10:10:44.292Z,1580.00
2018-09-23T10:11:44.286Z,1508.00
2018-09-23T10:12:44.289Z,1472.00
2018-09-23T10:13:44.258Z,1484.00
2018-09-23T10:14:44.244Z,1692.00
2018-09-23T10:15:44.235Z,1928.00
2018-09-23T10:16:44.275Z,1984.00
2018-09-23T10:17:44.257Z,1860.00
2018-09-23T10:18:44.200Z,1708.00
2018-09-23T10:19:44.219Z,1656.00
2018-09-23T10:20:44.176Z,1648.00
2018-09-23T10:21:44.187Z,1760.00
2018-09-23T10:22:44.262Z,1916.00
2018-09-23T10:23:44.306Z,2084.00
2018-09-23T10:24:44.134Z,2240.00
2018-09-23T10:25:44.141Z,2336.00
2018-09-23T10:26:44.108Z,2376.00
2018-09-23T10:27:44.121Z,2456.00
2018-09-23T10:28:44.099Z,2588.00
2018-09-23T10:29:44.087Z,2892.00
2018-09-23T10:30:44.063Z,2852.00
2018-09-23T10:31:44.190Z,2460.00
2018-09-23T10:32:44.040Z,2088.00
2018-09-23T10:33:44.029Z,1816.00
2018-09-23T10:34:44.030Z,1600.00
2018-09-23T10:35:44.046Z,1424.00
2018-09-23T10:36:44.020Z,1392.00
2018-09-23T10:37:43.989Z,1520.00
2018-09-23T10:38:43.975Z,1672.00
2018-09-23T10:39:43.993Z,1812.00
2018-09-23T10:40:43.959Z,2028.00
2018-09-23T10:41:43.940Z,2308.00
2018-09-23T10:42:43.926Z,2632.00
2018-09-23T10:43:43.917Z,2960.00
2018-09-23T10:44:44.020Z,3344.00
2018-09-23T10:45:43.892Z,3620.00
2018-09-23T10:46:43.922Z,3620.00
2018-09-23T10:47:43.871Z,3536.00
2018-09-23T10:48:43.862Z,3304.00
2018-09-23T10:49:43.869Z,3028.00
2018-09-23T10:50:43.838Z,2860.00
2018-09-23T10:51:43.826Z,2760.00
2018-09-23T10:52:43.828Z,2676.00
2018-09-23T10:53:43.804Z,2560.00
2018-09-23T10:54:43.846Z,2548.00
2018-09-23T10:55:43.825Z,2404.00
2018-09-23T10:56:43.793Z,2216.00
2018-09-23T10:57:43.757Z,2040.00
2018-09-23T10:58:43.750Z,1840.00
2018-09-23T10:59:43.776Z,1596.00
2018-09-23T11:00:43.724Z,1472.00
2018-09-23T11:01:43.719Z,1428.00
2018-09-23T11:02:43.701Z,1548.00
2018-09-23T11:03:43.764Z,1804.00
2018-09-23T11:04:43.701Z,1940.00
2018-09-23T11:05:43.671Z,1920.00
2018-09-23T11:06:43.678Z,1824.00
2018-09-23T11:07:43.647Z,1612.00
2018-09-23T11:08:43.653Z,1428.00
2018-09-23T11:09:43.646Z,1436.00
2018-09-23T11:10:43.610Z,1560.00
2018-09-23T11:11:43.622Z,1752.00
2018-09-23T11:12:43.596Z,1896.00
2018-09-23T11:13:43.584Z,2048.00
2018-09-23T11:14:43.594Z,2248.00
2018-09-23T11:15:43.564Z,2380.00
2018-09-23T11:16:43.560Z,2376.00
2018-09-23T11:17:43.533Z,2356.00
2018-09-23T11:18:43.523Z,2396.00
2018-09-23T11:19:43.567Z,2308.00
2018-09-23T11:20:43.500Z,2076.00
2018-09-23T11:21:43.485Z,1956.00
2018-09-23T11:22:43.476Z,1888.00
2018-09-23T11:23:43.467Z,1820.00
2018-09-23T11:24:43.502Z,1780.00
2018-09-23T11:25:43.439Z,1836.00
2018-09-23T11:26:43.437Z,1868.00
2018-09-23T11:27:43.418Z,1884.00
2018-09-23T11:28:43.405Z,1812.00
2018-09-23T11:29:43.430Z,1696.00
2018-09-23T11:30:43.432Z,1584.00
2018-09-23T11:31:43.372Z,1520.00
2018-09-23T11:32:43.361Z,1572.00
2018-09-23T11:33:43.357Z,1708.00
2018-09-23T11:34:43.362Z,1916.00
2018-09-23T11:35:43.351Z,2108.00
2018-09-23T11:36:43.319Z,2168.00
2018-09-23T11:37:43.308Z,2168.00
2018-09-23T11:38:43.314Z,2224.00
2018-09-23T11:39:43.287Z,2428.00
2018-09-23T11:40:43.275Z,2804.00
2018-09-23T11:41:43.258Z,2840.00
2018-09-23T11:42:43.286Z,2500.00
2018-09-23T11:43:43.236Z,2252.00
2018-09-23T11:44:43.223Z,2160.00
2018-09-23T11:45:43.229Z,1968.00
2018-09-23T11:46:43.205Z,1680.00
2018-09-23T11:47:43.230Z,1476.00
2018-09-23T11:48:43.181Z,1384.00
2018-09-23T11:49:43.168Z,1340.00
2018-09-23T11:50:43.160Z,1296.00
2018-09-23T11:51:43.161Z,1168.00
2018-09-23T11:52:43.165Z,1032.00
2018-09-23T11:53:43.122Z,984.00
2018-09-23T11:54:43.120Z,1004.00
2018-09-23T11:55:43.294Z,976.00
2018-09-23T11:56:43.088Z,868.00
2018-09-23T11:57:43.098Z,784.00
2018-09-23T11:58:43.122Z,760.00
2018-09-23T11:59:43.082Z,764.00
2018-09-23T12:00:43.045Z,816.00
2018-09-23T12:01:43.033Z,904.00
2018-09-23T12:02:43.042Z,952.00
2018-09-23T12:03:43.050Z,896.00
2018-09-23T12:04:43.018Z,760.00
2018-09-23T12:05:42.986Z,688.00
2018-09-23T12:06:42.976Z,656.00
2018-09-23T12:07:42.966Z,664.00
2018-09-23T12:08:42.985Z,704.00
2018-09-23T12:09:42.944Z,772.00
2018-09-23T12:10:42.977Z,824.00
2018-09-23T12:11:42.920Z,844.00
2018-09-23T12:12:42.908Z,792.00
2018-09-23T12:13:42.928Z,648.00
2018-09-23T12:14:42.928Z,548.00
2018-09-23T12:15:42.926Z,580.00
2018-09-23T12:16:42.862Z,720.00
2018-09-23T12:17:42.873Z,932.00
2018-09-23T12:18:42.868Z,1000.00
2018-09-23T12:19:42.831Z,928.00
2018-09-23T12:20:42.842Z,864.00
2018-09-23T12:21:42.814Z,888.00
2018-09-23T12:22:42.800Z,940.00
2018-09-23T12:23:42.787Z,1008.00
2018-09-23T12:24:42.774Z,1080.00
2018-09-23T12:25:42.995Z,1136.00
2018-09-23T12:26:42.754Z,1116.00
2018-09-23T12:27:42.741Z,1068.00
2018-09-23T12:28:42.734Z,1096.00
2018-09-23T12:29:42.744Z,1224.00
2018-09-23T12:30:42.733Z,1296.00
2018-09-23T12:31:42.692Z,1428.00
2018-09-23T12:32:42.683Z,1420.00
2018-09-23T12:33:42.670Z,1492.00
2018-09-23T12:34:42.684Z,1708.00
2018-09-23T12:35:42.649Z,1960.00
2018-09-23T12:36:42.636Z,2076.00
2018-09-23T12:37:42.627Z,1832.00
2018-09-23T12:38:42.622Z,1452.00
2018-09-23T12:39:42.643Z,1292.00